Flight Track Log - Related Links

Times and Time Zones

All times are in EST time to prevent confusion due to time zone crossing. See the DAL3780 flight status page for this flight to view local times or setup timezone preferences in your user account.


Time Position Orientation Groundspeed Altitude Reporting Facility
EST Latitude Longitude Course Direction KTS MPH feet Rate Location/Type
Mon 01:06:54 PM 40.8000 -73.8500 299° West 155 178 1,700  Level New York TRACON
Mon 01:07:54 PM 40.8333 -73.8833 323° Northwest 198 228 3,900 2,432 Climbing New York TRACON
Mon 01:10:04 PM 40.9100 -74.0411 303° West 246 283 9,400 2,432 Climbing New York Center
Mon 01:11:04 PM 40.9622 -74.1097 315° West 262 302 11,600 2,000 Climbing New York Center
Mon 01:12:00 PM 41.0022 -74.3785 299° West  Level FlightAware Approximate
Mon 01:12:04 PM 41.0161 -74.1975 309° West 285 328 13,400  Level New York Center
Mon 01:13:04 PM 41.0483 -74.3039 292° West 311 358 15,800 1,800 Climbing New York Center
Mon 01:14:04 PM 41.0867 -74.4103 296° West 317 365 17,000 950 Climbing New York Center
Mon 01:15:04 PM 41.1233 -74.5033 298° West 317 365 17,700 1,300 Climbing New York Center
Mon 01:16:04 PM 41.1656 -74.6186 296° West 319 367 19,600 1,800 Climbing New York Center
Mon 01:17:04 PM 41.2058 -74.7256 297° West 319 367 21,300 1,600 Climbing New York Center
Mon 01:18:04 PM 41.2456 -74.8383 295° West 326 375 22,800 1,500 Climbing New York Center
Mon 01:19:04 PM 41.2853 -74.9567 294° West 341 392 24,300 1,450 Climbing New York Center
Mon 01:20:04 PM 41.3272 -75.0669 297° West 341 392 25,700 1,200 Climbing New York Center
Mon 01:21:04 PM 41.3686 -75.1858 295° West 346 398 26,700 1,000 Climbing New York Center
Mon 01:22:04 PM 41.4119 -75.3047 296° West 346 398 27,700 1,000 Climbing New York Center
Mon 01:23:04 PM 41.4553 -75.4239 296° West 346 398 28,700 1,000 Climbing New York Center
Mon 01:24:04 PM 41.4942 -75.5486 293° West 351 404 29,700 950 Climbing New York Center
Mon 01:25:04 PM 41.5289 -75.6647 292° West 371 427 30,600 1,000 Climbing New York Center
Mon 01:26:04 PM 41.5669 -75.8033 290° West 371 427 31,700 1,050 Climbing New York Center
Mon 01:27:04 PM 41.6031 -75.9308 291° West 371 427 32,700 1,000 Climbing New York Center
Mon 01:28:04 PM 41.6411 -76.0558 292° West 371 427 33,700 650 Climbing New York Center
Mon 01:29:04 PM 41.6750 -76.1864 289° West 371 427 34,000 150 Climbing New York Center
Mon 01:30:04 PM 41.7108 -76.3114 291° West 371 427 34,000  Level New York Center
Mon 01:31:04 PM 41.7464 -76.4394 290° West 371 427 34,000  Level New York Center
Mon 01:32:04 PM 41.7783 -76.5536 291° West 371 427 34,000  Level New York Center
Mon 01:33:04 PM 41.8158 -76.6819 291° West 371 427 34,000  Level New York Center
Mon 01:34:04 PM 41.8489 -76.8103 289° West 371 427 34,000  Level New York Center
Mon 01:35:00 PM 41.8833 -76.9342 291° West 371 427 34,000  Level Cleveland Center
Mon 01:36:01 PM 41.9189 -77.0639 290° West 372 428 34,000  Level Cleveland Center
Mon 01:37:03 PM 41.9547 -77.1958 290° West 374 430 34,000  Level Cleveland Center
Mon 01:38:05 PM 41.9894 -77.3275 290° West 375 432 34,000  Level Cleveland Center
Mon 01:39:07 PM 42.0319 -77.4864 290° West 376 433 34,000  Level Cleveland Center
Mon 01:40:08 PM 42.0672 -77.6189 290° West 376 433 34,000  Level Cleveland Center
Mon 01:41:10 PM 42.1042 -77.7525 290° West 378 435 34,000  Level Cleveland Center
Mon 01:42:12 PM 42.1406 -77.8867 290° West 380 437 34,000  Level Cleveland Center
Mon 01:43:14 PM 42.1758 -78.0186 290° West 377 434 34,000  Level Cleveland Center
Mon 01:44:15 PM 42.2106 -78.1525 289° West 377 434 34,000  Level Cleveland Center
Mon 01:45:17 PM 42.2464 -78.2878 290° West 380 437 34,000  Level Cleveland Center
Mon 01:46:19 PM 42.2800 -78.4233 289° West 381 438 34,000  Level Cleveland Center
Mon 01:47:21 PM 42.3136 -78.5611 288° West 384 442 34,000  Level Cleveland Center
Mon 01:48:22 PM 42.3531 -78.7231 288° West 381 438 34,000  Level Cleveland Center
Mon 01:49:24 PM 42.3867 -78.8592 289° West 381 438 34,000  Level Cleveland Center
Mon 01:50:26 PM 42.4214 -79.0000 289° West 384 442 34,000  Level Cleveland Center
Mon 01:51:27 PM 42.4550 -79.1389 288° West 385 443 34,000  Level Cleveland Center
Mon 01:52:29 PM 42.4792 -79.2731 284° West 379 436 34,000  Level Cleveland Center
Mon 01:53:31 PM 42.4936 -79.4161 278° West 383 441 34,000  Level Cleveland Center
Mon 01:54:33 PM 42.5078 -79.5600 278° West 385 443 34,000  Level Cleveland Center
Mon 01:55:35 PM 42.5258 -79.7325 278° West 387 445 34,000  Level Cleveland Center
Mon 01:56:36 PM 42.5392 -79.8756 277° West 384 442 34,000  Level Cleveland Center
Mon 01:57:38 PM 42.5531 -80.0267 277° West 388 447 34,000  Level Cleveland Center
Mon 01:58:40 PM 42.5669 -80.1736 277° West 389 448 34,000  Level Cleveland Center
Mon 01:59:42 PM 42.5808 -80.3211 277° West 389 448 34,000  Level Cleveland Center
Mon 02:00:44 PM 42.5950 -80.4683 277° West 391 450 34,000  Level Cleveland Center
Mon 02:01:46 PM 42.6083 -80.6172 277° West 394 453 34,000  Level Cleveland Center
Mon 02:02:47 PM 42.6222 -80.7675 277° West 399 459 34,000  Level Cleveland Center
Mon 02:03:49 PM 42.6361 -80.9161 277° West 396 456 34,000  Level Cleveland Center
Mon 02:04:51 PM 42.6511 -81.0872 277° West 390 449 34,000  Level Cleveland Center
Mon 02:05:53 PM 42.6631 -81.2342 276° West 391 450 34,000  Level Cleveland Center
Mon 02:06:54 PM 42.6789 -81.3778 279° West 385 443 34,000  Level Cleveland Center
Mon 02:07:56 PM 42.6958 -81.5211 279° West 383 441 34,000  Level Cleveland Center
Mon 02:08:58 PM 42.7117 -81.6675 278° West 387 445 34,000  Level Cleveland Center
Mon 02:10:00 PM 42.7261 -81.8073 278° West  Level FlightAware Approximate
Mon 02:10:00 PM 42.7306 -81.8219 278° West 387 445 34,000  Level Cleveland Center
Mon 02:11:02 PM 42.7458 -81.9647 278° West 385 443 34,000  Level Cleveland Center
Mon 02:12:03 PM 42.7614 -82.1086 278° West 386 444 34,000  Level Cleveland Center
Mon 02:13:05 PM 42.7769 -82.2531 278° West 388 447 34,000  Level Cleveland Center
Mon 02:14:07 PM 42.7919 -82.3986 278° West 390 449 34,000  Level Cleveland Center
Mon 02:15:09 PM 42.8081 -82.5425 279° West 388 447 34,000  Level Cleveland Center
Mon 02:16:10 PM 42.8314 -82.7161 280° West 390 449 34,000  Level Cleveland Center
Mon 02:17:12 PM 42.8511 -82.8608 281° West 392 451 34,000  Level Cleveland Center
Mon 02:18:14 PM 42.8708 -83.0042 281° West 389 448 34,000  Level Cleveland Center
Mon 02:19:16 PM 42.8894 -83.1478 280° West 390 449 34,000  Level Cleveland Center
Mon 02:20:17 PM 42.9083 -83.2906 280° West 386 444 34,000  Level Cleveland Center
Mon 02:21:19 PM 42.9311 -83.4625 280° West 387 445 34,000  Level Cleveland Center
Mon 02:22:21 PM 42.9492 -83.6064 280° West 387 445 34,000  Level Cleveland Center
Mon 02:23:23 PM 42.9683 -83.7531 280° West 394 453 34,000  Level Cleveland Center
Mon 02:24:25 PM 42.9817 -83.9003 277° West 393 452 34,000  Level Cleveland Center
Mon 02:25:26 PM 42.9961 -84.0478 278° West 395 455 34,000  Level Cleveland Center
Mon 02:26:28 PM 43.0094 -84.1958 277° West 395 455 34,000  Level Cleveland Center
Mon 02:27:30 PM 43.0264 -84.3692 278° West 396 456 34,000  Level Cleveland Center
Mon 02:28:29 PM 43.0400 -84.5197 277° West 400 460 34,000  Level Chicago Center
Mon 02:29:30 PM 43.0536 -84.6686 277° West 399 459 34,000  Level Chicago Center
Mon 02:31:33 PM 43.0814 -84.9708 277° West 400 460 34,000 -65 Level Chicago Center
Mon 02:32:34 PM 43.0942 -85.1222 277° West 403 464 33,800 -492 Descending Chicago Center
Mon 02:33:35 PM 43.1072 -85.2728 277° West 400 460 33,000 -390 Descending Chicago Center
Mon 02:34:37 PM 43.1200 -85.4214 277° West 397 457 33,000  Level Chicago Center
Mon 02:35:38 PM 43.1325 -85.5742 276° West 402 463 33,000  Level Chicago Center
Mon 02:36:39 PM 43.1475 -85.7572 276° West 407 468 33,000  Level Chicago Center
Mon 02:37:40 PM 43.1600 -85.9097 276° West 411 473 33,000 -878 Level Chicago Center
Mon 02:38:42 PM 43.1697 -86.0628 275° West 415 478 31,200 -1,805 Descending Chicago Center
Mon 02:39:43 PM 43.1672 -86.2153 269° West 410 472 29,300 -1,918 Descending Chicago Center
Mon 02:40:44 PM 43.1650 -86.3658 269° West 401 461 27,300 -1,967 Descending Chicago Center
Mon 02:41:45 PM 43.1625 -86.5178 269° West 401 461 25,300 -2,146 Descending Chicago Center
Mon 02:42:47 PM 43.1594 -86.6875 269° West 376 433 22,900 -2,049 Descending Chicago Center
Mon 02:43:48 PM 43.1564 -86.8228 268° West 360 414 21,100 -1,377 Descending Chicago Center
Mon 02:44:49 PM 43.1544 -86.9450 269° West 328 377 20,100 -541 Descending Chicago Center
Mon 02:45:50 PM 43.1517 -87.0583 268° West 302 348 20,000 -49 Descending Chicago Center
Mon 02:46:52 PM 43.1489 -87.1756 268° West 307 353 20,000  Level Chicago Center
Mon 02:47:53 PM 43.1456 -87.2961 268° West 316 364 20,000  Level Chicago Center
Mon 02:48:54 PM 43.1533 -87.4244 275° West 322 371 20,000  Level Chicago Center
Mon 02:50:57 PM 43.2828 -87.3486 239° Southwest 364 419 20,000  Level Chicago Center
Mon 02:51:58 PM 43.2856 -87.2147 88° East 354 407 20,000  Level Chicago Center
Mon 02:52:59 PM 43.2903 -87.0500 88° East 359 413 20,000  Level Chicago Center
Mon 02:54:00 PM 43.2933 -86.9125 88° East 360 414 20,000  Level Chicago Center
Mon 02:55:02 PM 43.2433 -86.8144 125° Southeast 328 377 20,000  Level Chicago Center
Mon 02:56:03 PM 43.1708 -86.8394 194° South 302 348 20,000  Level Chicago Center
Mon 02:57:04 PM 43.1536 -86.9475 258° West 304 350 20,000 -689 Level Chicago Center
Mon 02:58:05 PM 43.1511 -87.0633 268° West 308 354 18,600 -1,721 Descending Chicago Center
Mon 02:59:06 PM 43.1483 -87.1747 268° West 296 341 16,500 -2,146 Descending Chicago Center
Mon 03:00:08 PM 43.1608 -87.2844 279° West 295 339 14,200 -2,195 Descending Chicago Center
Mon 03:01:09 PM 43.1778 -87.4019 281° West 283 326 12,000 -1,756 Descending Chicago Center
Mon 03:02:11 PM 43.1928 -87.5003 282° West 267 307 10,600 -1,415 Descending Chicago Center
Mon 03:03:12 PM 43.2161 -87.5789 292° West 233 268 9,100 -1,721 Descending Chicago Center
Mon 03:04:13 PM 43.2544 -87.6511 306° West 235 270 7,100 -1,967 Descending Chicago Center
Mon 03:05:14 PM 43.2583 -87.7367 274° West 226 260 5,100 -1,512 Descending Chicago Center
Mon 03:06:16 PM 43.2636 -87.8203 275° West 222 255 4,000 -537 Descending Chicago Center
Mon 03:07:17 PM 43.2244 -87.8508 210° Southwest 152 175 4,000  Level Chicago Center
Mon 03:08:18 PM 43.1850 -87.8517 181° South 142 163 4,000 -49 Level Chicago Center
Mon 03:09:19 PM 43.1450 -87.8594 188° South 143 165 3,900 -537 Descending Chicago Center
Mon 03:10:21 PM 43.1044 -87.8667 187° South 144 166 2,900 -537 Descending Chicago Center
Mon 03:11:22 PM 43.0675 -87.8736 188° South 141 162 2,800 -246 Descending Chicago Center
Mon 03:12:23 PM 43.0328 -87.8789 186° South 135 155 2,400 -541 Descending Chicago Center
Mon 03:13:24 PM 42.9978 -87.8867 189° South 129 148 1,700 -488 Descending Chicago Center
Mon 03:14:26 PM 42.9647 -87.8914 186° South 129 148 1,400 -290 Descending Chicago Center
Mon 03:16:00 PM 42.9469 -87.8971 236° Southwest  Level Estimated

Login

Don't have an account? Register now (free) for customized features, flight alerts, and more!